createdAt,value
2022-08-17T00:01:01.317Z,0
2022-08-17T00:01:55.197Z,0
2022-08-17T00:02:48.480Z,0
2022-08-17T00:03:32.382Z,0
2022-08-17T00:04:29.301Z,0
2022-08-17T00:05:29.282Z,0
2022-08-17T00:06:29.000Z,0
2022-08-17T00:07:28.994Z,0
2022-08-17T00:08:29.000Z,0
2022-08-17T00:09:29.010Z,0
2022-08-17T00:10:28.720Z,0
2022-08-17T00:11:29.241Z,0
2022-08-17T00:12:53.114Z,0
2022-08-17T00:13:28.974Z,0
2022-08-17T00:14:29.206Z,0
2022-08-17T00:15:28.702Z,0
2022-08-17T00:17:02.639Z,0
2022-08-17T00:17:28.923Z,0
2022-08-17T00:19:16.927Z,0
2022-08-17T00:20:40.086Z,0
2022-08-17T00:22:39.008Z,0
2022-08-17T00:22:50.351Z,0
2022-08-17T00:23:58.526Z,0
2022-08-17T00:24:49.518Z,0
2022-08-17T00:25:49.765Z,0
2022-08-17T00:26:54.330Z,0
2022-08-17T00:27:49.240Z,0
2022-08-17T00:28:49.171Z,0
2022-08-17T00:29:49.744Z,0
2022-08-17T00:31:01.941Z,0
2022-08-17T00:31:48.957Z,0
2022-08-17T00:33:26.493Z,0
2022-08-17T00:33:49.472Z,0
2022-08-17T00:34:49.440Z,0
2022-08-17T00:35:49.702Z,0
2022-08-17T00:36:48.919Z,0
2022-08-17T00:37:49.173Z,0
2022-08-17T00:38:49.161Z,0
2022-08-17T00:39:49.675Z,0
2022-08-17T00:41:01.386Z,0
2022-08-17T00:41:51.472Z,0
2022-08-17T00:42:49.395Z,0
2022-08-17T00:43:49.379Z,0
2022-08-17T00:44:49.120Z,0
2022-08-17T00:45:50.179Z,0
2022-08-17T00:46:49.132Z,0
2022-08-17T00:47:49.365Z,0
2022-08-17T00:48:49.336Z,0
2022-08-17T00:49:49.844Z,0
2022-08-17T00:50:49.087Z,0
2022-08-17T00:51:49.071Z,0
2022-08-17T00:52:49.568Z,0
2022-08-17T00:53:49.080Z,0
2022-08-17T00:54:51.630Z,0
2022-08-17T00:55:49.050Z,0
2022-08-17T00:56:49.555Z,0
2022-08-17T00:57:52.247Z,0
2022-08-17T00:58:49.295Z,0
2022-08-17T01:00:04.411Z,0
2022-08-17T01:00:49.435Z,0
2022-08-17T01:01:49.139Z,0
2022-08-17T01:02:52.345Z,0
2022-08-17T01:03:49.297Z,0
2022-08-17T01:04:49.243Z,0
2022-08-17T01:05:52.376Z,0
2022-08-17T01:06:49.480Z,0
2022-08-17T01:07:49.230Z,0
2022-08-17T01:08:48.703Z,0
2022-08-17T01:09:49.459Z,0
2022-08-17T01:11:10.481Z,0
2022-08-17T01:11:49.186Z,0
2022-08-17T01:12:49.154Z,0
2022-08-17T01:13:50.382Z,0
2022-08-17T01:14:49.421Z,0
2022-08-17T01:15:53.102Z,0
2022-08-17T01:16:49.168Z,0
2022-08-17T01:17:49.157Z,0
2022-08-17T01:18:49.170Z,0
2022-08-17T01:19:49.391Z,0
2022-08-17T01:20:57.871Z,0
2022-08-17T01:21:48.854Z,0
2022-08-17T01:22:49.325Z,0
2022-08-17T01:23:49.364Z,0
2022-08-17T01:24:48.843Z,0
2022-08-17T01:25:53.508Z,0
2022-08-17T01:26:51.414Z,0
2022-08-17T01:27:48.578Z,0
2022-08-17T01:29:04.831Z,0
2022-08-17T01:29:48.807Z,0
2022-08-17T01:31:06.896Z,0
2022-08-17T01:31:49.370Z,0
2022-08-17T01:32:49.487Z,0
2022-08-17T01:33:49.035Z,0
2022-08-17T01:34:59.093Z,0
2022-08-17T01:35:48.513Z,0
2022-08-17T01:36:49.453Z,0
2022-08-17T01:37:49.266Z,0
2022-08-17T01:38:48.741Z,0
2022-08-17T01:39:49.727Z,0
2022-08-17T01:40:59.598Z,0
2022-08-17T01:41:49.242Z,0
2022-08-17T01:42:49.764Z,0
2022-08-17T01:43:48.714Z,0
2022-08-17T01:44:49.691Z,0
2022-08-17T01:45:49.936Z,0
2022-08-17T01:46:50.193Z,0
2022-08-17T01:47:49.947Z,0
2022-08-17T01:48:49.865Z,0
2022-08-17T01:49:49.910Z,0
2022-08-17T01:50:51.293Z,0
2022-08-17T01:51:49.650Z,0
2022-08-17T01:52:50.119Z,0
2022-08-17T01:53:50.186Z,0
2022-08-17T01:54:49.641Z,0
2022-08-17T01:55:50.119Z,0
2022-08-17T01:56:52.123Z,0
2022-08-17T01:57:50.123Z,0
2022-08-17T01:58:49.840Z,0
2022-08-17T01:59:49.835Z,0
2022-08-17T02:01:10.260Z,0
2022-08-17T02:01:49.571Z,0
2022-08-17T02:02:50.470Z,0
2022-08-17T02:04:08.256Z,0
2022-08-17T02:04:49.547Z,0
2022-08-17T02:05:49.289Z,0
2022-08-17T02:07:02.649Z,0
2022-08-17T02:08:36.939Z,0
2022-08-17T02:09:26.247Z,0
2022-08-17T02:10:01.884Z,0
2022-08-17T02:10:56.278Z,0
2022-08-17T02:11:52.545Z,0
2022-08-17T02:12:50.321Z,0
2022-08-17T02:14:22.081Z,0
2022-08-17T02:14:49.510Z,0
2022-08-17T02:15:49.992Z,0
2022-08-17T02:16:49.991Z,0
2022-08-17T02:17:57.120Z,0
2022-08-17T02:18:50.232Z,0
2022-08-17T02:19:50.219Z,0
2022-08-17T02:20:52.047Z,0
2022-08-17T02:21:49.969Z,0
2022-08-17T02:22:50.068Z,0
2022-08-17T02:23:49.932Z,0
2022-08-17T02:25:09.714Z,0
2022-08-17T02:25:49.412Z,0
2022-08-17T02:26:50.162Z,0
2022-08-17T02:27:49.908Z,0
2022-08-17T02:28:49.380Z,0
2022-08-17T02:29:49.908Z,0
2022-08-17T02:31:11.853Z,0
2022-08-17T02:31:49.887Z,0
2022-08-17T02:32:50.366Z,0
2022-08-17T02:34:09.179Z,0
2022-08-17T02:34:49.851Z,0
2022-08-17T02:35:49.597Z,0
2022-08-17T02:36:50.094Z,0
2022-08-17T02:38:00.242Z,0
2022-08-17T02:38:49.839Z,0
2022-08-17T02:39:50.230Z,0
2022-08-17T02:40:52.352Z,0
2022-08-17T02:41:49.564Z,0
2022-08-17T02:42:49.804Z,0
2022-08-17T02:43:50.074Z,0
2022-08-17T02:44:49.786Z,0
2022-08-17T02:45:49.771Z,0
2022-08-17T02:46:49.772Z,0
2022-08-17T02:47:49.766Z,0
2022-08-17T02:48:49.739Z,0
2022-08-17T02:50:01.564Z,0
2022-08-17T02:50:49.490Z,0
2022-08-17T02:51:49.984Z,0
2022-08-17T02:53:13.317Z,0
2022-08-17T02:53:49.692Z,0
2022-08-17T02:54:52.080Z,0
2022-08-17T02:55:49.952Z,0
2022-08-17T02:56:49.673Z,0
2022-08-17T02:57:49.932Z,0
2022-08-17T02:58:49.926Z,0
2022-08-17T02:59:55.959Z,0
2022-08-17T03:00:49.920Z,0
2022-08-17T03:01:50.380Z,0
2022-08-17T03:02:49.762Z,0
2022-08-17T03:03:49.620Z,0
2022-08-17T03:04:49.379Z,0
2022-08-17T03:05:49.100Z,0
2022-08-17T03:06:49.620Z,0
2022-08-17T03:07:49.854Z,0
2022-08-17T03:08:49.594Z,0
2022-08-17T03:09:49.068Z,0
2022-08-17T03:10:49.844Z,0
2022-08-17T03:11:55.882Z,0
2022-08-17T03:12:49.918Z,0
2022-08-17T03:13:49.290Z,0
2022-08-17T03:14:50.892Z,0
2022-08-17T03:15:53.212Z,0
2022-08-17T03:16:49.826Z,0
2022-08-17T03:17:49.778Z,0
2022-08-17T03:18:49.506Z,0
2022-08-17T03:19:52.664Z,0
2022-08-17T03:20:49.749Z,0
2022-08-17T03:21:57.205Z,0
2022-08-17T03:23:08.808Z,0
2022-08-17T03:23:56.715Z,0
2022-08-17T03:24:50.195Z,0
2022-08-17T03:25:58.008Z,0
2022-08-17T03:26:49.446Z,0
2022-08-17T03:27:58.565Z,0
2022-08-17T03:28:49.443Z,0
2022-08-17T03:29:49.164Z,0
2022-08-17T03:30:48.930Z,0
2022-08-17T03:31:49.655Z,0
2022-08-17T03:32:49.639Z,0
2022-08-17T03:49:59.595Z,0
2022-08-17T03:50:59.615Z,0
2022-08-17T03:51:59.566Z,0
2022-08-17T03:53:05.737Z,0
2022-08-17T03:53:59.639Z,0
2022-08-17T03:54:59.543Z,0
2022-08-17T03:55:59.548Z,5
2022-08-17T03:56:59.637Z,5
2022-08-17T03:57:59.864Z,5
2022-08-17T03:58:59.251Z,5
2022-08-17T03:59:58.987Z,5
2022-08-17T04:00:59.539Z,5
2022-08-17T04:02:02.565Z,5
2022-08-17T04:02:59.380Z,5
2022-08-17T04:03:59.198Z,5
2022-08-17T04:04:59.642Z,10
2022-08-17T04:05:59.181Z,10
2022-08-17T04:06:59.516Z,10
2022-08-17T04:07:59.171Z,10
2022-08-17T04:08:59.423Z,10
2022-08-17T04:09:59.457Z,15
2022-08-17T04:10:59.396Z,15
2022-08-17T04:12:07.010Z,15
2022-08-17T04:13:00.140Z,15
2022-08-17T04:13:59.372Z,20
2022-08-17T04:15:03.645Z,20
2022-08-17T04:15:59.348Z,20
2022-08-17T04:16:59.358Z,25
2022-08-17T04:17:59.084Z,25
2022-08-17T04:18:59.321Z,25
2022-08-17T04:19:59.399Z,25
2022-08-17T04:21:01.444Z,30
2022-08-17T04:21:59.055Z,30
2022-08-17T04:23:02.840Z,30
2022-08-17T04:23:59.547Z,30
2022-08-17T04:25:03.472Z,30
2022-08-17T04:25:59.312Z,35
2022-08-17T04:27:02.753Z,35
2022-08-17T04:27:59.256Z,35
2022-08-17T04:28:59.258Z,35
2022-08-17T04:30:04.479Z,35
2022-08-17T04:30:59.481Z,40
2022-08-17T04:31:59.220Z,40
2022-08-17T04:33:15.370Z,40
2022-08-17T04:33:58.942Z,40
2022-08-17T04:34:58.701Z,40
2022-08-17T04:35:59.480Z,45
2022-08-17T04:36:59.908Z,45
2022-08-17T04:37:59.206Z,45
2022-08-17T04:39:00.510Z,50
2022-08-17T04:40:04.586Z,50
2022-08-17T04:40:59.410Z,50
2022-08-17T04:41:58.636Z,55
2022-08-17T04:43:09.917Z,55
2022-08-17T04:43:59.381Z,55
2022-08-17T04:45:01.118Z,55
2022-08-17T04:46:05.162Z,55
2022-08-17T04:46:58.843Z,55
2022-08-17T04:47:59.084Z,55
2022-08-17T04:48:58.834Z,60
2022-08-17T04:49:59.079Z,60
2022-08-17T04:50:58.810Z,60
2022-08-17T04:52:31.544Z,60
2022-08-17T04:53:00.619Z,60
2022-08-17T04:54:04.383Z,60
2022-08-17T04:54:59.048Z,60
2022-08-17T04:55:58.776Z,65
2022-08-17T04:56:59.061Z,65
2022-08-17T04:57:59.275Z,65
2022-08-17T04:58:59.478Z,65
2022-08-17T04:59:58.745Z,65
2022-08-17T05:00:59.598Z,65
2022-08-17T05:01:59.272Z,65
2022-08-17T05:03:01.182Z,65
2022-08-17T05:03:59.014Z,65
2022-08-17T05:05:00.531Z,70
2022-08-17T05:05:59.077Z,70
2022-08-17T05:06:58.704Z,70
2022-08-17T05:07:58.693Z,75
2022-08-17T05:08:58.958Z,75
2022-08-17T05:09:58.926Z,75
2022-08-17T05:10:58.670Z,75
2022-08-17T05:12:01.073Z,75
2022-08-17T05:12:59.272Z,75
2022-08-17T05:13:58.906Z,75
2022-08-17T05:14:58.883Z,80
2022-08-17T05:15:59.151Z,80
2022-08-17T05:16:59.223Z,85
2022-08-17T05:17:58.874Z,85
2022-08-17T05:18:58.615Z,85
2022-08-17T05:20:01.345Z,80
2022-08-17T05:21:01.774Z,80
2022-08-17T05:21:59.998Z,80
2022-08-17T05:22:59.123Z,85
2022-08-17T05:24:43.158Z,85
2022-08-17T05:25:07.533Z,85
2022-08-17T05:26:04.534Z,85
2022-08-17T05:27:10.952Z,90
2022-08-17T05:28:04.558Z,90
2022-08-17T05:29:05.239Z,95
2022-08-17T05:30:00.949Z,100
2022-08-17T05:31:01.444Z,100
2022-08-17T05:32:01.564Z,105
2022-08-17T05:33:01.628Z,105
2022-08-17T05:34:00.654Z,105
2022-08-17T05:35:03.242Z,100
2022-08-17T05:36:01.172Z,100
2022-08-17T05:37:00.894Z,100
2022-08-17T05:38:03.865Z,100
2022-08-17T05:39:00.632Z,100
2022-08-17T05:40:01.306Z,100
2022-08-17T05:41:01.122Z,95
2022-08-17T05:42:00.860Z,95
2022-08-17T05:43:02.286Z,95
2022-08-17T05:44:10.276Z,90
2022-08-17T05:45:00.591Z,90
2022-08-17T05:46:05.491Z,95
2022-08-17T05:47:01.360Z,90
2022-08-17T05:48:01.320Z,90
2022-08-17T05:49:00.816Z,95
2022-08-17T05:50:09.709Z,95
2022-08-17T05:51:00.805Z,95
2022-08-17T05:52:01.301Z,95
2022-08-17T05:53:00.854Z,95
2022-08-17T05:54:01.045Z,95
2022-08-17T05:55:02.898Z,100
2022-08-17T05:56:01.030Z,100
2022-08-17T05:57:01.036Z,100
2022-08-17T05:58:07.261Z,100
2022-08-17T05:59:01.021Z,100
2022-08-17T06:00:01.000Z,105
2022-08-17T06:01:00.820Z,105
2022-08-17T06:02:00.238Z,105
2022-08-17T06:03:01.540Z,105
2022-08-17T06:04:03.631Z,105
2022-08-17T06:05:01.228Z,105
2022-08-17T06:06:00.975Z,105
2022-08-17T06:07:01.229Z,105
2022-08-17T06:08:00.949Z,105
2022-08-17T06:09:01.274Z,105
2022-08-17T06:10:00.951Z,105
2022-08-17T06:11:04.725Z,105
2022-08-17T06:12:07.717Z,105
2022-08-17T06:13:00.892Z,105
2022-08-17T06:14:00.677Z,105
2022-08-17T06:15:01.674Z,105
2022-08-17T06:16:00.907Z,105
2022-08-17T06:17:01.173Z,110
2022-08-17T06:18:00.902Z,105
2022-08-17T06:19:00.903Z,105
2022-08-17T06:20:00.649Z,105
2022-08-17T06:21:00.647Z,105
2022-08-17T06:22:00.644Z,105
2022-08-17T06:23:00.714Z,105
2022-08-17T06:24:03.601Z,105
2022-08-17T06:25:00.120Z,105
2022-08-17T06:26:00.968Z,100
2022-08-17T06:27:00.607Z,100
2022-08-17T06:28:03.315Z,105
2022-08-17T06:29:00.596Z,105
2022-08-17T06:30:00.602Z,105
2022-08-17T06:31:10.334Z,105
2022-08-17T06:32:00.852Z,105
2022-08-17T06:33:00.891Z,110
2022-08-17T06:34:00.835Z,110
2022-08-17T06:35:00.566Z,110
2022-08-17T06:36:02.965Z,110
2022-08-17T06:37:06.114Z,110
2022-08-17T06:38:00.578Z,110
2022-08-17T06:39:00.297Z,110
2022-08-17T06:40:01.299Z,110
2022-08-17T06:41:01.285Z,110
2022-08-17T06:42:00.028Z,115
2022-08-17T06:43:16.519Z,115
2022-08-17T06:44:00.780Z,120
2022-08-17T06:45:01.055Z,120
2022-08-17T06:46:01.017Z,125
2022-08-17T06:47:00.514Z,130
2022-08-17T06:48:00.754Z,135
2022-08-17T06:49:00.508Z,160
2022-08-17T06:50:04.482Z,220
2022-08-17T06:51:00.502Z,275
2022-08-17T06:52:00.763Z,285
2022-08-17T06:53:01.470Z,260
2022-08-17T06:54:02.605Z,220
2022-08-17T06:55:00.720Z,215
2022-08-17T06:56:00.474Z,250
2022-08-17T06:57:03.779Z,255
2022-08-17T06:58:00.465Z,265
2022-08-17T06:59:00.724Z,275
2022-08-17T07:00:06.120Z,265
2022-08-17T07:01:05.842Z,300
2022-08-17T07:02:00.755Z,300
2022-08-17T07:03:12.972Z,275
2022-08-17T07:04:00.456Z,265
2022-08-17T07:05:00.997Z,240
2022-08-17T07:06:01.768Z,250
2022-08-17T07:07:00.474Z,270
2022-08-17T07:08:00.449Z,275
2022-08-17T07:09:00.438Z,295
2022-08-17T07:10:00.473Z,290
2022-08-17T07:11:00.194Z,285
2022-08-17T07:12:01.457Z,275
2022-08-17T07:13:00.855Z,270
2022-08-17T07:14:01.211Z,280
2022-08-17T07:15:00.187Z,280
2022-08-17T07:16:06.370Z,295
2022-08-17T07:17:00.706Z,300
2022-08-17T07:18:00.759Z,300
2022-08-17T07:19:01.798Z,300
2022-08-17T07:20:04.268Z,300
2022-08-17T07:21:00.206Z,290
2022-08-17T07:22:00.715Z,285
2022-08-17T07:23:09.478Z,270
2022-08-17T07:24:00.726Z,245
2022-08-17T07:25:00.209Z,220
2022-08-17T07:26:00.727Z,210
2022-08-17T07:27:01.005Z,185
2022-08-17T07:28:00.884Z,190
2022-08-17T07:29:00.233Z,185
2022-08-17T07:30:00.730Z,185
2022-08-17T07:31:00.547Z,180
2022-08-17T07:32:02.293Z,180
2022-08-17T07:33:00.744Z,180
2022-08-17T07:34:00.997Z,180
2022-08-17T07:35:00.536Z,180
2022-08-17T07:36:00.755Z,180
2022-08-17T07:37:00.520Z,175
2022-08-17T07:38:01.152Z,175
2022-08-17T07:39:00.768Z,175
2022-08-17T07:40:24.869Z,170
2022-08-17T07:41:00.706Z,175
2022-08-17T07:42:06.655Z,175
2022-08-17T07:43:00.279Z,175
2022-08-17T07:44:00.561Z,175
2022-08-17T07:45:00.542Z,175
2022-08-17T07:46:00.811Z,175
2022-08-17T07:47:00.752Z,175
2022-08-17T07:48:01.108Z,180
2022-08-17T07:49:00.807Z,180
2022-08-17T07:50:00.555Z,185
2022-08-17T07:51:00.568Z,190
2022-08-17T07:52:52.079Z,185
2022-08-17T07:53:01.770Z,180
2022-08-17T07:54:18.500Z,180
2022-08-17T07:55:02.121Z,180
2022-08-17T07:56:02.106Z,175
2022-08-17T07:57:01.866Z,175
2022-08-17T07:58:02.032Z,170
2022-08-17T07:59:01.612Z,165
2022-08-17T08:00:06.057Z,165
2022-08-17T08:01:03.163Z,170
2022-08-17T08:02:08.053Z,165
2022-08-17T08:03:03.916Z,170
2022-08-17T08:04:08.065Z,165
2022-08-17T08:05:15.623Z,165
2022-08-17T08:06:01.394Z,170
2022-08-17T08:07:01.901Z,175
2022-08-17T08:08:02.438Z,170
2022-08-17T08:09:01.149Z,170
2022-08-17T08:10:01.423Z,170
2022-08-17T08:11:01.650Z,170
2022-08-17T08:12:01.914Z,170
2022-08-17T08:13:06.576Z,165
2022-08-17T08:14:01.924Z,165
2022-08-17T08:15:01.664Z,160
2022-08-17T08:16:03.763Z,165
2022-08-17T08:17:02.700Z,165
2022-08-17T08:18:02.363Z,160
2022-08-17T08:19:05.642Z,160
2022-08-17T08:20:51.617Z,170
2022-08-17T08:21:03.362Z,170
2022-08-17T08:22:02.724Z,170
2022-08-17T08:23:02.445Z,170
2022-08-17T08:24:02.716Z,165
2022-08-17T08:25:02.457Z,160
2022-08-17T08:26:02.882Z,155
2022-08-17T08:27:02.203Z,155
2022-08-17T08:28:02.445Z,155
2022-08-17T08:29:02.722Z,155
2022-08-17T08:30:02.455Z,155
2022-08-17T08:31:02.708Z,155
2022-08-17T08:32:02.503Z,150
2022-08-17T08:33:04.668Z,150
2022-08-17T08:34:02.547Z,155
2022-08-17T08:35:11.849Z,155
2022-08-17T08:36:02.996Z,155
2022-08-17T08:37:44.756Z,150
2022-08-17T08:38:02.844Z,150
2022-08-17T08:39:02.473Z,150
2022-08-17T08:40:02.576Z,150
2022-08-17T08:41:03.141Z,130
2022-08-17T08:42:02.743Z,130
2022-08-17T08:43:02.516Z,125
2022-08-17T08:44:02.506Z,135
2022-08-17T08:45:13.431Z,160
2022-08-17T08:46:02.495Z,155
2022-08-17T08:47:02.503Z,145
2022-08-17T08:48:53.602Z,140
2022-08-17T08:49:18.634Z,140
2022-08-17T08:50:42.892Z,155
2022-08-17T08:51:07.086Z,155
2022-08-17T08:52:06.800Z,160
2022-08-17T08:53:08.474Z,160
2022-08-17T08:54:06.543Z,165
2022-08-17T08:55:06.521Z,160
2022-08-17T08:56:06.769Z,140
2022-08-17T08:57:40.157Z,150
2022-08-17T08:58:06.520Z,160
2022-08-17T08:59:06.804Z,145
2022-08-17T09:00:07.640Z,140
2022-08-17T09:01:07.412Z,135
2022-08-17T09:02:06.926Z,140
2022-08-17T09:03:06.809Z,135
2022-08-17T09:04:40.732Z,130
2022-08-17T09:05:23.532Z,130
2022-08-17T09:06:06.796Z,140
2022-08-17T09:07:06.633Z,160
2022-08-17T09:08:06.580Z,180
2022-08-17T09:09:07.307Z,210
2022-08-17T09:10:08.614Z,210
2022-08-17T09:11:07.061Z,210
2022-08-17T09:12:12.164Z,185
2022-08-17T09:13:16.456Z,195
2022-08-17T09:14:28.542Z,195
2022-08-17T09:15:12.913Z,190
2022-08-17T09:16:07.754Z,205
2022-08-17T09:17:06.568Z,205
2022-08-17T09:19:12.223Z,205
2022-08-17T09:20:36.648Z,185
2022-08-17T09:21:27.827Z,175
2022-08-17T09:22:22.486Z,165
2022-08-17T09:23:22.764Z,180
2022-08-17T09:24:29.736Z,190
2022-08-17T09:25:22.509Z,225
2022-08-17T09:26:22.513Z,225
2022-08-17T09:27:23.035Z,215
2022-08-17T09:28:22.798Z,205
2022-08-17T09:29:23.028Z,205
2022-08-17T09:30:23.785Z,210
2022-08-17T09:31:22.787Z,230
2022-08-17T09:32:22.982Z,235
2022-08-17T09:33:22.524Z,245
2022-08-17T09:34:34.035Z,235
2022-08-17T09:35:22.785Z,235
2022-08-17T09:36:22.524Z,230
2022-08-17T09:37:23.048Z,225
2022-08-17T09:38:23.044Z,230
2022-08-17T09:39:22.023Z,240
2022-08-17T09:40:23.199Z,235
2022-08-17T09:41:22.291Z,225
2022-08-17T09:42:22.869Z,210
2022-08-17T09:43:22.817Z,195
2022-08-17T09:44:32.606Z,180
2022-08-17T09:45:22.540Z,180
2022-08-17T09:46:22.046Z,180
2022-08-17T09:47:22.558Z,185
2022-08-17T09:48:25.062Z,185
2022-08-17T09:49:29.379Z,175
2022-08-17T09:51:08.098Z,190
2022-08-17T09:51:23.066Z,185
2022-08-17T09:52:24.677Z,190
2022-08-17T09:53:22.817Z,195
2022-08-17T09:54:49.288Z,165
2022-08-17T09:55:23.079Z,175
2022-08-17T09:56:22.816Z,170
2022-08-17T09:57:39.376Z,160
2022-08-17T09:58:31.195Z,150
2022-08-17T09:59:22.511Z,145
2022-08-17T10:00:22.983Z,140
2022-08-17T10:01:22.842Z,135
2022-08-17T10:02:23.072Z,145
2022-08-17T10:03:22.861Z,150
2022-08-17T10:04:32.315Z,185
2022-08-17T10:05:23.081Z,190
2022-08-17T10:06:28.877Z,190
2022-08-17T10:07:23.127Z,200
2022-08-17T10:08:26.543Z,190
2022-08-17T10:09:22.875Z,195
2022-08-17T10:10:26.400Z,205
2022-08-17T10:11:35.463Z,210
2022-08-17T10:12:35.372Z,220
2022-08-17T10:13:28.770Z,240
2022-08-17T10:14:58.327Z,245
2022-08-17T10:15:24.159Z,240
2022-08-17T10:16:22.628Z,205
2022-08-17T10:17:22.882Z,195
2022-08-17T10:18:22.631Z,200
2022-08-17T10:19:22.165Z,230
2022-08-17T10:20:22.693Z,200
2022-08-17T10:21:22.908Z,195
2022-08-17T10:22:44.930Z,185
2022-08-17T10:23:23.158Z,200
2022-08-17T10:24:22.383Z,235
2022-08-17T10:26:04.843Z,240
2022-08-17T10:26:22.656Z,240
2022-08-17T10:27:22.902Z,245
2022-08-17T10:28:35.004Z,235
2022-08-17T10:29:23.083Z,230
2022-08-17T10:30:22.821Z,235
2022-08-17T10:31:52.909Z,240
2022-08-17T10:32:22.924Z,240
2022-08-17T10:33:23.117Z,225
2022-08-17T10:34:22.935Z,225
2022-08-17T10:35:22.682Z,235
2022-08-17T10:36:22.684Z,240
2022-08-17T10:37:22.418Z,210
2022-08-17T10:38:28.875Z,235
2022-08-17T10:39:22.940Z,255
2022-08-17T10:40:23.413Z,295
2022-08-17T10:41:22.951Z,305
2022-08-17T10:42:40.186Z,280
2022-08-17T10:43:23.183Z,265
2022-08-17T10:44:49.646Z,255
2022-08-17T10:45:22.715Z,255
2022-08-17T10:46:39.887Z,235
2022-08-17T10:47:22.482Z,230
2022-08-17T10:48:23.224Z,225
2022-08-17T10:49:22.718Z,215
2022-08-17T10:50:22.773Z,230
2022-08-17T10:51:23.005Z,215
2022-08-17T10:52:25.023Z,185
2022-08-17T10:53:26.720Z,185
2022-08-17T10:54:23.007Z,180
2022-08-17T10:55:22.843Z,195
2022-08-17T10:56:22.789Z,220
2022-08-17T10:57:23.024Z,235
2022-08-17T10:58:22.766Z,230
2022-08-17T10:59:22.760Z,220
2022-08-17T11:00:27.678Z,210
2022-08-17T11:01:23.120Z,220
2022-08-17T11:02:22.588Z,210
2022-08-17T11:03:22.783Z,215
2022-08-17T11:04:23.951Z,235
2022-08-17T11:05:22.778Z,230
2022-08-17T11:06:22.787Z,230
2022-08-17T11:07:22.281Z,225
2022-08-17T11:08:24.768Z,215
2022-08-17T11:09:23.075Z,200
2022-08-17T11:10:22.548Z,195
2022-08-17T11:11:22.805Z,200
2022-08-17T11:12:23.255Z,200
2022-08-17T11:13:22.834Z,200
2022-08-17T11:14:22.598Z,200
2022-08-17T11:15:23.675Z,200
2022-08-17T11:16:23.931Z,200
2022-08-17T11:17:24.202Z,205
2022-08-17T11:18:24.224Z,195
2022-08-17T11:19:23.710Z,200
2022-08-17T11:20:24.243Z,205
2022-08-17T11:21:23.956Z,205
2022-08-17T11:22:24.758Z,200
2022-08-17T11:23:23.731Z,210
2022-08-17T11:24:23.471Z,205
2022-08-17T11:25:23.718Z,210
2022-08-17T11:26:23.742Z,190
2022-08-17T11:27:23.739Z,190
2022-08-17T11:28:25.059Z,195
2022-08-17T11:29:31.476Z,200
2022-08-17T11:30:28.804Z,205
2022-08-17T11:31:43.594Z,225
2022-08-17T11:32:25.715Z,215
2022-08-17T11:33:30.674Z,210
2022-08-17T11:34:25.284Z,215
2022-08-17T11:35:24.129Z,225
2022-08-17T11:36:24.014Z,235
2022-08-17T11:37:23.787Z,235
2022-08-17T11:38:27.235Z,235
2022-08-17T11:39:23.783Z,235
2022-08-17T11:40:24.448Z,235
2022-08-17T11:41:24.048Z,235
2022-08-17T11:42:24.298Z,230
2022-08-17T11:43:28.006Z,220
2022-08-17T11:44:23.792Z,220
2022-08-17T11:45:41.447Z,210
2022-08-17T11:46:23.821Z,205
2022-08-17T11:47:24.071Z,210
2022-08-17T11:48:38.534Z,205
2022-08-17T11:49:24.329Z,205
2022-08-17T11:50:30.405Z,215
2022-08-17T11:51:23.836Z,215
2022-08-17T11:52:24.088Z,215
2022-08-17T11:53:24.290Z,220
2022-08-17T11:54:41.432Z,235
2022-08-17T11:55:50.184Z,245
2022-08-17T11:56:25.312Z,245
2022-08-17T11:57:24.115Z,245
2022-08-17T11:58:23.861Z,245
2022-08-17T11:59:23.870Z,245
2022-08-17T12:00:23.610Z,245
2022-08-17T12:01:25.322Z,240
2022-08-17T12:02:24.395Z,240
2022-08-17T12:03:24.138Z,235
2022-08-17T12:04:23.881Z,235
2022-08-17T12:05:24.407Z,230
2022-08-17T12:06:24.152Z,230
2022-08-17T12:07:23.903Z,230
2022-08-17T12:08:23.691Z,230
2022-08-17T12:09:23.667Z,235
2022-08-17T12:10:23.672Z,240
2022-08-17T12:12:17.656Z,230
2022-08-17T12:12:28.186Z,230
2022-08-17T12:13:41.929Z,235
2022-08-17T12:15:21.694Z,230
2022-08-17T12:15:32.230Z,230
2022-08-17T12:16:32.698Z,230
2022-08-17T12:18:02.772Z,245
2022-08-17T12:18:31.989Z,255
2022-08-17T12:19:32.510Z,270
2022-08-17T12:20:32.525Z,300
2022-08-17T12:21:32.248Z,320
2022-08-17T12:22:32.632Z,325
2022-08-17T12:23:32.508Z,320
2022-08-17T12:24:32.519Z,320
2022-08-17T12:25:32.515Z,320
2022-08-17T12:26:32.280Z,305
2022-08-17T12:28:20.671Z,285
2022-08-17T12:29:46.027Z,265
2022-08-17T12:30:32.053Z,255
2022-08-17T12:31:32.303Z,260
2022-08-17T12:32:32.053Z,265
2022-08-17T12:33:36.558Z,265
2022-08-17T12:34:32.573Z,255
2022-08-17T12:35:32.581Z,250
2022-08-17T12:36:32.314Z,235
2022-08-17T12:37:32.585Z,225
2022-08-17T12:38:41.859Z,220
2022-08-17T12:39:41.774Z,225
2022-08-17T12:40:32.597Z,225
2022-08-17T12:41:32.474Z,230
2022-08-17T12:42:32.611Z,235
2022-08-17T12:43:32.098Z,235
2022-08-17T12:44:32.112Z,225
2022-08-17T12:45:32.631Z,230
2022-08-17T12:46:35.914Z,230
2022-08-17T12:47:36.496Z,230
2022-08-17T12:48:32.136Z,220
2022-08-17T12:49:32.909Z,215
2022-08-17T12:50:38.553Z,220
2022-08-17T12:51:32.419Z,220
2022-08-17T12:52:32.931Z,220
2022-08-17T12:53:32.674Z,205
2022-08-17T12:54:32.435Z,205
2022-08-17T12:55:40.399Z,205
2022-08-17T12:56:32.842Z,200
2022-08-17T12:57:32.958Z,205
2022-08-17T12:58:32.433Z,205
2022-08-17T12:59:39.336Z,200
2022-08-17T13:00:32.702Z,200
2022-08-17T13:01:32.864Z,195
2022-08-17T13:02:32.479Z,185
2022-08-17T13:03:39.021Z,185
2022-08-17T13:04:36.565Z,200
2022-08-17T13:05:32.220Z,215
2022-08-17T13:06:32.480Z,225
2022-08-17T13:07:32.226Z,215
2022-08-17T13:08:32.993Z,205
2022-08-17T13:09:47.306Z,205
2022-08-17T13:10:40.022Z,215
2022-08-17T13:11:32.247Z,215
2022-08-17T13:12:32.527Z,210
2022-08-17T13:13:32.527Z,200
2022-08-17T13:14:35.490Z,195
2022-08-17T13:15:32.535Z,190
2022-08-17T13:16:32.289Z,190
2022-08-17T13:17:32.776Z,190
2022-08-17T13:18:32.786Z,190
2022-08-17T13:19:49.402Z,190
2022-08-17T13:20:32.293Z,185
2022-08-17T13:21:32.551Z,185
2022-08-17T13:22:32.564Z,170
2022-08-17T13:23:34.769Z,175
2022-08-17T13:24:40.689Z,160
2022-08-17T13:25:32.059Z,170
2022-08-17T13:26:32.582Z,170
2022-08-17T13:27:32.319Z,150
2022-08-17T13:28:44.682Z,145
2022-08-17T13:29:33.104Z,145
2022-08-17T13:30:32.355Z,140
2022-08-17T13:31:32.607Z,140
2022-08-17T13:32:38.142Z,135
2022-08-17T13:33:55.096Z,130
2022-08-17T13:35:13.275Z,130
2022-08-17T13:35:52.519Z,130
2022-08-17T13:36:38.487Z,130
2022-08-17T13:37:33.749Z,130
2022-08-17T13:38:32.894Z,125
2022-08-17T13:39:33.249Z,130
2022-08-17T13:40:33.459Z,135
2022-08-17T13:41:33.461Z,140
2022-08-17T13:42:33.719Z,140
2022-08-17T13:43:33.471Z,125
2022-08-17T13:44:33.230Z,125
2022-08-17T13:45:50.305Z,125
2022-08-17T13:46:33.493Z,130
2022-08-17T13:47:33.240Z,135
2022-08-17T13:48:33.487Z,135
2022-08-17T13:49:56.448Z,140
2022-08-17T13:50:33.500Z,145
2022-08-17T13:51:33.537Z,155
2022-08-17T13:52:40.039Z,165
2022-08-17T13:53:35.818Z,170
2022-08-17T13:54:33.534Z,165
2022-08-17T13:55:33.518Z,175
2022-08-17T13:56:48.060Z,180
2022-08-17T13:57:33.782Z,185
2022-08-17T13:58:33.542Z,180
2022-08-17T14:00:04.605Z,180
2022-08-17T14:00:33.530Z,185
2022-08-17T14:01:33.560Z,190
2022-08-17T14:02:37.407Z,205
2022-08-17T14:03:33.787Z,180
2022-08-17T14:04:33.049Z,175
2022-08-17T14:05:37.418Z,180
2022-08-17T14:07:03.199Z,175
2022-08-17T14:07:33.570Z,175
2022-08-17T14:08:33.808Z,180
2022-08-17T14:09:39.817Z,180
2022-08-17T14:10:33.573Z,175
2022-08-17T14:11:33.579Z,180
2022-08-17T14:12:33.330Z,185
2022-08-17T14:13:33.569Z,195
2022-08-17T14:14:33.830Z,195
2022-08-17T14:16:03.714Z,200
2022-08-17T14:16:33.853Z,205
2022-08-17T14:17:40.078Z,205
2022-08-17T14:19:04.711Z,220
2022-08-17T14:19:33.622Z,225
2022-08-17T14:20:33.108Z,230
2022-08-17T14:21:33.357Z,230
2022-08-17T14:22:34.058Z,230
2022-08-17T14:23:33.371Z,225
2022-08-17T14:24:33.633Z,225
2022-08-17T14:25:33.890Z,220